Time;durP1;ratioP1;P1;durP2;ratioP2;P2;SDS_P1;SDS_P2;PMS_P1;PMS_P2;Temp;Humidity;BMP_temperature;BMP_pressure;BME280_temperature;BME280_humidity;BME280_pressure;Samples;Min_cycle;Max_cycle;Signal;HPM_P1;HPM_P2
2024/02/01 00:01:53;;;;;;;16.40;8.90;;;;;;;1.96;60.52;101305.97;5056517;28;20040;-62
2024/02/01 00:04:18;;;;;;;13.43;8.40;;;;;;;1.97;60.56;101305.03;5055846;28;20057;-63
2024/02/01 00:06:50;;;;;;;16.50;9.48;;;;;;;1.97;60.47;101308.50;5056237;28;20060;-61
2024/02/01 00:09:15;;;;;;;15.07;8.98;;;;;;;1.97;59.92;101302.44;5056536;28;20270;-62
2024/02/01 00:11:41;;;;;;;19.23;9.70;;;;;;;1.90;60.10;101296.63;5056149;28;20428;-64
2024/02/01 00:14:06;;;;;;;21.45;10.88;;;;;;;1.88;60.45;101290.63;5056125;28;20112;-61
2024/02/01 00:16:32;;;;;;;18.92;10.23;;;;;;;1.84;60.59;101291.69;5055019;28;20311;-63
2024/02/01 00:18:57;;;;;;;16.95;9.90;;;;;;;1.85;61.27;101283.78;5056630;28;20047;-61
2024/02/01 00:21:23;;;;;;;17.08;9.50;;;;;;;1.88;60.59;101285.41;5055945;28;20116;-63
2024/02/01 00:23:48;;;;;;;17.85;10.07;;;;;;;1.91;60.90;101288.72;5055552;28;20521;-63
2024/02/01 00:26:14;;;;;;;20.02;10.73;;;;;;;1.82;60.67;101294.38;5055976;28;20029;-61
2024/02/01 00:28:39;;;;;;;11.25;8.52;;;;;;;1.78;60.48;101295.44;5055537;28;20384;-61
2024/02/01 00:31:04;;;;;;;16.15;9.10;;;;;;;1.67;60.91;101300.28;5056000;28;20029;-61
2024/02/01 00:33:30;;;;;;;16.40;9.38;;;;;;;1.59;61.65;101294.53;5058096;28;20040;-62
2024/02/01 00:35:55;;;;;;;16.05;8.43;;;;;;;1.55;60.87;101298.19;5059523;28;20441;-63
2024/02/01 00:38:20;;;;;;;16.95;7.82;;;;;;;1.49;61.47;101296.72;5059839;28;20223;-61
2024/02/01 00:40:46;;;;;;;15.43;8.85;;;;;;;1.51;61.61;101301.88;5059572;28;20109;-61
2024/02/01 00:43:11;;;;;;;26.70;12.00;;;;;;;1.60;60.93;101297.09;5059566;28;20083;-63
2024/02/01 00:45:37;;;;;;;28.77;14.73;;;;;;;1.64;61.22;101291.72;5060231;28;20031;-62
2024/02/01 00:48:03;;;;;;;25.30;12.32;;;;;;;1.67;60.38;101283.75;5059577;28;20041;-61
2024/02/01 00:50:28;;;;;;;18.70;9.88;;;;;;;1.68;60.36;101282.84;5059808;28;20109;-63
2024/02/01 00:52:53;;;;;;;13.45;9.02;;;;;;;1.71;60.12;101272.25;5059598;28;20255;-61
2024/02/01 00:55:19;;;;;;;16.42;8.20;;;;;;;1.68;60.26;101275.84;5059733;28;20036;-62
2024/02/01 00:57:44;;;;;;;21.38;10.02;;;;;;;1.55;60.72;101272.09;5058237;28;20138;-64
2024/02/01 01:00:10;;;;;;;17.27;8.77;;;;;;;1.57;60.58;101273.72;5059015;28;20036;-61
2024/02/01 01:02:36;;;;;;;16.33;9.32;;;;;;;1.48;60.62;101244.56;5058566;28;20350;-62
2024/02/01 01:05:01;;;;;;;18.90;9.43;;;;;;;1.64;60.51;101270.84;5057306;28;20037;-61
2024/02/01 01:07:26;;;;;;;18.83;9.95;;;;;;;1.67;60.06;101263.72;5059732;28;20017;-64
2024/02/01 01:09:52;;;;;;;28.23;13.27;;;;;;;1.64;59.97;101258.63;5058413;28;20036;-61
2024/02/01 01:12:19;;;;;;;29.85;14.52;;;;;;;1.61;59.84;101250.94;5059233;28;20318;-62
2024/02/01 01:14:44;;;;;;;28.85;12.65;;;;;;;1.66;59.43;101255.94;5058891;28;20043;-61
2024/02/01 01:17:10;;;;;;;23.60;11.40;;;;;;;1.71;59.14;101253.97;5059085;28;20041;-61
2024/02/01 01:19:35;;;;;;;24.02;11.68;;;;;;;1.71;59.18;101246.16;5058797;28;20052;-63
2024/02/01 01:22:01;;;;;;;21.45;11.13;;;;;;;1.64;59.38;101252.56;5059249;28;20028;-62
2024/02/01 01:24:26;;;;;;;14.20;9.57;;;;;;;1.57;59.35;101249.38;5057837;28;20032;-61
2024/02/01 01:26:51;;;;;;;14.88;8.52;;;;;;;1.56;59.06;101253.75;5058566;28;20092;-61
2024/02/01 01:29:17;;;;;;;22.33;10.10;;;;;;;1.56;59.83;101250.28;5058822;28;20056;-61
2024/02/01 01:31:42;;;;;;;17.30;9.13;;;;;;;1.56;59.07;101247.69;5058757;28;20092;-62
2024/02/01 01:34:08;;;;;;;17.98;8.57;;;;;;;1.52;59.66;101240.91;5059484;28;20108;-61
2024/02/01 01:36:33;;;;;;;14.50;9.77;;;;;;;1.51;59.44;101237.44;5058136;28;20040;-62
2024/02/01 01:38:59;;;;;;;13.45;9.00;;;;;;;1.52;59.41;101235.69;5059183;28;20032;-61
2024/02/01 01:41:24;;;;;;;14.52;9.65;;;;;;;1.49;59.09;101231.44;5056958;28;20327;-61
2024/02/01 01:43:49;;;;;;;16.67;9.73;;;;;;;1.52;59.41;101231.31;5057234;28;20029;-62
2024/02/01 01:46:15;;;;;;;16.15;9.32;;;;;;;1.51;59.56;101227.00;5056767;28;20289;-61
2024/02/01 01:48:41;;;;;;;18.98;11.63;;;;;;;1.57;58.59;101224.13;5058839;28;20181;-62
2024/02/01 01:51:07;;;;;;;18.65;10.73;;;;;;;1.59;58.79;101227.50;5057718;28;20040;-62
2024/02/01 01:53:36;;;;;;;19.92;10.60;;;;;;;1.57;58.99;101220.66;5058550;28;20071;-61
2024/02/01 01:56:02;;;;;;;20.80;10.27;;;;;;;1.52;59.19;101220.88;5057200;28;20036;-63
2024/02/01 01:58:30;;;;;;;15.63;9.88;;;;;;;1.53;59.28;101219.94;5057777;28;20135;-62
2024/02/01 02:00:57;;;;;;;17.27;9.70;;;;;;;1.47;59.18;101219.38;5057505;28;20201;-61
2024/02/01 02:03:29;;;;;;;19.60;11.65;;;;;;;1.51;59.54;101213.94;5057471;28;20766;-61
2024/02/01 02:05:55;;;;;;;18.27;10.00;;;;;;;1.58;58.83;101204.09;5057965;28;20045;-63
2024/02/01 02:08:21;;;;;;;23.42;10.80;;;;;;;1.65;58.68;101218.56;5058757;28;20319;-64
2024/02/01 02:10:47;;;;;;;20.05;10.30;;;;;;;1.61;58.23;101214.38;5057802;28;20025;-62
2024/02/01 02:13:13;;;;;;;22.08;10.32;;;;;;;1.56;58.12;101208.53;5057526;28;20044;-61
2024/02/01 02:15:38;;;;;;;16.55;10.27;;;;;;;1.55;58.26;101210.28;5058435;28;20029;-61
2024/02/01 02:18:09;;;;;;;17.83;10.75;;;;;;;1.55;58.18;101201.59;5056716;28;20025;-62
2024/02/01 02:20:38;;;;;;;17.48;10.45;;;;;;;1.37;58.41;101197.22;5058128;28;20311;-62
2024/02/01 02:23:04;;;;;;;21.42;10.38;;;;;;;1.43;58.68;101189.97;5056249;28;20894;-61
2024/02/01 02:25:29;;;;;;;19.35;11.25;;;;;;;1.37;59.02;101200.66;5058606;28;20051;-62
2024/02/01 02:27:55;;;;;;;20.67;12.07;;;;;;;1.10;58.56;101200.13;5056123;28;20032;-61
2024/02/01 02:30:22;;;;;;;27.20;12.63;;;;;;;1.17;58.33;101187.66;5058865;28;20028;-62
2024/02/01 02:32:48;;;;;;;23.92;12.55;;;;;;;1.18;58.22;101186.75;5056514;28;20037;-62
2024/02/01 02:35:14;;;;;;;22.50;12.57;;;;;;;0.97;59.75;101185.88;5057179;28;20201;-61
2024/02/01 02:37:49;;;;;;;20.65;11.77;;;;;;;1.16;59.42;101176.38;5057295;28;20025;-62
2024/02/01 02:40:16;;;;;;;22.27;11.02;;;;;;;1.18;59.14;101174.53;5057304;28;20033;-62
2024/02/01 02:42:42;;;;;;;18.58;10.13;;;;;;;0.94;58.63;101168.59;5055586;28;20029;-63
2024/02/01 02:45:08;;;;;;;18.27;11.43;;;;;;;0.92;59.05;101169.59;5056968;28;20375;-62
2024/02/01 02:47:34;;;;;;;21.55;11.27;;;;;;;1.00;59.08;101175.31;5057129;28;20134;-62
2024/02/01 02:49:59;;;;;;;18.27;10.65;;;;;;;1.03;58.90;101180.41;5056942;28;20123;-63
2024/02/01 02:52:25;;;;;;;19.05;11.35;;;;;;;0.80;59.99;101184.00;5055288;28;20033;-62
2024/02/01 02:54:50;;;;;;;22.60;12.52;;;;;;;0.67;60.43;101188.03;5056885;28;20036;-60
2024/02/01 02:57:15;;;;;;;21.00;11.43;;;;;;;0.72;61.12;101175.66;5057455;28;20122;-62
2024/02/01 02:59:41;;;;;;;18.48;11.05;;;;;;;0.79;61.01;101181.44;5055364;28;20039;-61
2024/02/01 03:02:07;;;;;;;22.48;12.38;;;;;;;0.78;61.09;101157.13;5057703;28;20029;-62
2024/02/01 03:04:35;;;;;;;20.80;11.77;;;;;;;0.91;60.87;101162.66;5055979;28;20386;-63
2024/02/01 03:07:01;;;;;;;22.35;12.68;;;;;;;0.84;60.00;101172.53;5057209;28;20163;-62
2024/02/01 03:09:27;;;;;;;23.02;13.32;;;;;;;0.83;58.27;101170.81;5055283;28;20382;-61
2024/02/01 03:11:52;;;;;;;25.38;13.27;;;;;;;0.91;58.64;101170.50;5057021;28;20029;-62
2024/02/01 03:14:17;;;;;;;22.17;13.45;;;;;;;0.94;58.53;101168.59;5056001;28;20045;-62
2024/02/01 03:16:43;;;;;;;23.75;15.02;;;;;;;1.00;59.39;101166.66;5056461;28;20033;-62
2024/02/01 03:19:11;;;;;;;33.00;18.02;;;;;;;1.05;59.38;101169.94;5055642;28;20036;-61
2024/02/01 03:21:37;;;;;;;28.65;16.40;;;;;;;0.88;58.74;101161.03;5056474;28;20059;-62
2024/02/01 03:24:03;;;;;;;35.90;17.42;;;;;;;0.92;58.70;101157.38;5056128;28;20339;-62
2024/02/01 03:26:34;;;;;;;33.03;16.92;;;;;;;0.94;58.78;101160.78;5056549;28;20040;-62
2024/02/01 03:29:00;;;;;;;35.80;20.05;;;;;;;0.98;59.16;101158.03;5056779;28;20033;-60
2024/02/01 03:31:33;;;;;;;30.33;15.82;;;;;;;0.96;58.73;101156.34;5056186;28;20045;-61
2024/02/01 03:34:05;;;;;;;23.92;13.90;;;;;;;0.80;59.63;101155.31;5057558;28;20095;-62
2024/02/01 03:36:30;;;;;;;21.83;12.32;;;;;;;0.89;59.78;101156.69;5055889;28;20114;-62
2024/02/01 03:38:56;;;;;;;22.77;11.98;;;;;;;0.88;60.05;101145.41;5058025;28;20585;-62
2024/02/01 03:41:21;;;;;;;22.95;12.02;;;;;;;0.88;60.27;101149.75;5055875;28;20043;-61
2024/02/01 03:43:48;;;;;;;28.38;12.57;;;;;;;0.79;60.52;101144.94;5057002;28;20035;-61
2024/02/01 03:46:14;;;;;;;20.42;10.20;;;;;;;0.82;60.76;101145.66;5055407;28;20108;-62
2024/02/01 03:48:40;;;;;;;23.15;11.65;;;;;;;0.87;60.05;101148.91;5056766;28;20318;-63
2024/02/01 03:51:07;;;;;;;18.20;11.07;;;;;;;0.89;60.53;101149.69;5054245;28;20108;-61
2024/02/01 03:53:35;;;;;;;20.17;10.45;;;;;;;0.82;60.14;101142.22;5055085;28;20075;-61
2024/02/01 03:56:04;;;;;;;17.88;9.52;;;;;;;0.88;60.28;101145.41;5055195;28;20813;-63
2024/02/01 03:58:32;;;;;;;17.75;10.27;;;;;;;0.89;60.10;101139.25;5055923;28;20262;-63
2024/02/01 04:01:00;;;;;;;24.80;11.55;;;;;;;0.83;60.20;101131.72;5055808;28;20033;-62
2024/02/01 04:03:26;;;;;;;20.77;12.40;;;;;;;0.84;60.55;101135.16;5055407;28;20234;-61
2024/02/01 04:05:53;;;;;;;23.73;13.73;;;;;;;0.83;60.17;101142.13;5055849;28;20045;-62
2024/02/01 04:08:19;;;;;;;27.65;15.75;;;;;;;0.71;60.44;101118.34;5055305;28;20052;-63
2024/02/01 04:10:48;;;;;;;24.17;16.30;;;;;;;0.88;60.22;101136.72;5054324;28;20075;-61
2024/02/01 04:13:13;;;;;;;28.95;17.15;;;;;;;0.88;60.25;101142.78;5055408;28;20036;-60
2024/02/01 04:15:39;;;;;;;33.80;17.95;;;;;;;0.84;60.45;101132.56;5056814;28;20040;-61
2024/02/01 04:18:07;;;;;;;25.45;15.05;;;;;;;0.85;59.61;101142.91;5055391;28;20088;-63
2024/02/01 04:20:34;;;;;;;25.20;13.38;;;;;;;0.77;59.83;101138.94;5057002;28;20037;-61
2024/02/01 04:22:59;;;;;;;23.92;13.75;;;;;;;0.74;59.97;101136.47;5054359;28;20123;-61
2024/02/01 04:25:25;;;;;;;24.70;12.00;;;;;;;0.80;60.07;101131.84;5056577;28;20460;-61
2024/02/01 04:27:51;;;;;;;17.90;9.73;;;;;;;0.94;59.19;101133.84;5055921;28;20040;-63
2024/02/01 04:30:20;;;;;;;27.63;11.70;;;;;;;1.00;59.19;101130.97;5057329;28;20044;-63
2024/02/01 04:32:47;;;;;;;20.73;11.32;;;;;;;0.89;59.27;101135.81;5055534;28;20044;-61
2024/02/01 04:35:14;;;;;;;21.35;10.95;;;;;;;0.78;60.00;101132.81;5055597;28;20334;-62
2024/02/01 04:37:40;;;;;;;22.08;12.73;;;;;;;0.82;59.35;101139.59;5054828;28;20028;-62
2024/02/01 04:40:07;;;;;;;22.42;13.20;;;;;;;0.84;59.60;101143.84;5055783;28;20222;-63
2024/02/01 04:42:35;;;;;;;20.05;10.57;;;;;;;0.88;59.49;101142.78;5055134;28;20041;-62
2024/02/01 04:45:04;;;;;;;19.38;9.82;;;;;;;0.99;59.25;101141.47;5054608;28;20064;-61
2024/02/01 04:47:34;;;;;;;20.13;11.75;;;;;;;0.96;58.83;101139.84;5055734;28;20099;-61
2024/02/01 04:49:59;;;;;;;17.98;11.05;;;;;;;0.94;59.36;101137.31;5055383;28;20100;-61
2024/02/01 04:52:26;;;;;;;17.52;10.50;;;;;;;0.64;59.94;101131.66;5054564;28;20127;-62
2024/02/01 04:54:52;;;;;;;19.67;13.32;;;;;;;0.69;59.57;101138.44;5055235;28;20037;-62
2024/02/01 04:57:17;;;;;;;45.97;23.25;;;;;;;0.74;59.28;101133.88;5056269;28;20033;-61
2024/02/01 04:59:45;;;;;;;65.72;32.35;;;;;;;0.66;59.83;101130.75;5054893;28;20082;-60
2024/02/01 05:02:12;;;;;;;49.83;25.15;;;;;;;0.68;59.83;101126.31;5053463;28;20033;-62
2024/02/01 05:04:37;;;;;;;63.45;28.77;;;;;;;0.75;59.52;101133.81;5055582;28;20397;-62
2024/02/01 05:07:05;;;;;;;83.15;37.50;;;;;;;0.82;59.08;101137.00;5054926;28;20029;-63
2024/02/01 05:09:41;;;;;;;46.13;22.60;;;;;;;0.84;58.78;101132.56;5055897;28;20242;-61
2024/02/01 05:12:07;;;;;;;31.40;18.60;;;;;;;0.58;57.52;101118.88;5054453;28;20357;-62
2024/02/01 05:14:36;;;;;;;22.10;13.60;;;;;;;0.27;56.05;101124.53;5054925;28;20039;-61
2024/02/01 05:17:02;;;;;;;18.42;12.63;;;;;;;-0.01;57.15;101127.38;5054820;28;20321;-61
2024/02/01 05:19:27;;;;;;;20.85;12.48;;;;;;;-0.03;58.00;101136.16;5057236;28;20040;-63
2024/02/01 05:21:53;;;;;;;26.80;15.57;;;;;;;0.06;59.07;101137.56;5058723;28;20033;-61
2024/02/01 05:24:20;;;;;;;22.90;14.07;;;;;;;0.11;59.37;101131.28;5058554;28;20044;-61
2024/02/01 05:26:50;;;;;;;29.50;14.52;;;;;;;0.14;58.97;101133.75;5058125;28;20033;-62
2024/02/01 05:29:19;;;;;;;22.48;14.13;;;;;;;0.22;59.09;101133.44;5059087;28;20096;-64
2024/02/01 05:31:51;;;;;;;25.75;15.40;;;;;;;0.33;59.01;101133.84;5059031;28;20040;-62
2024/02/01 05:34:17;;;;;;;28.65;18.33;;;;;;;0.36;58.92;101135.47;5057807;28;20068;-61
2024/02/01 05:36:45;;;;;;;31.60;19.00;;;;;;;0.27;59.23;101140.16;5059618;28;20345;-61
2024/02/01 05:39:27;;;;;;;29.40;19.40;;;;;;;0.22;59.93;101136.91;5057317;28;20037;-61
2024/02/01 05:41:57;;;;;;;21.73;13.70;;;;;;;0.24;58.23;101132.47;5059051;28;20029;-62
2024/02/01 05:44:24;;;;;;;35.05;19.25;;;;;;;0.18;58.88;101139.69;5056751;28;20041;-62
2024/02/01 05:46:53;;;;;;;40.40;17.92;;;;;;;0.27;59.36;101134.94;5058564;28;20037;-61
2024/02/01 05:49:23;;;;;;;33.92;16.20;;;;;;;0.35;59.29;101129.44;5057303;28;20044;-62
2024/02/01 05:51:50;;;;;;;31.40;15.93;;;;;;;0.44;59.56;101125.59;5059164;28;20100;-63
2024/02/01 05:54:17;;;;;;;26.98;15.23;;;;;;;0.52;59.24;101126.13;5057280;28;20047;-62
2024/02/01 05:56:43;;;;;;;35.13;17.80;;;;;;;0.61;59.20;101123.13;5059149;28;20315;-61
2024/02/01 05:59:12;;;;;;;33.58;19.13;;;;;;;0.68;58.67;101132.38;5058481;28;20120;-61
2024/02/01 06:01:38;;;;;;;45.05;20.52;;;;;;;0.74;58.18;101129.50;5058153;28;20037;-62
2024/02/01 06:04:04;;;;;;;38.67;18.33;;;;;;;0.72;59.04;101125.25;5056814;28;20040;-62
2024/02/01 06:06:30;;;;;;;33.03;17.98;;;;;;;0.69;58.91;101133.22;5058055;28;20036;-63
2024/02/01 06:08:57;;;;;;;45.15;25.35;;;;;;;0.65;59.54;101129.91;5058678;28;20037;-62
2024/02/01 06:11:23;;;;;;;32.88;16.25;;;;;;;0.71;59.41;101132.25;5058041;28;20044;-61
2024/02/01 06:13:48;;;;;;;38.25;16.88;;;;;;;0.73;59.64;101138.22;5056228;28;20045;-62
2024/02/01 06:16:14;;;;;;;85.28;21.20;;;;;;;0.70;59.87;101130.53;5057191;28;20040;-63
2024/02/01 06:18:39;;;;;;;60.63;28.00;;;;;;;0.69;60.01;101135.81;5058008;28;20041;-61
2024/02/01 06:21:05;;;;;;;99.25;44.42;;;;;;;0.47;61.18;101125.47;5057884;28;20025;-62
2024/02/01 06:23:31;;;;;;;141.02;54.85;;;;;;;0.64;61.24;101134.25;5057751;28;20041;-62
2024/02/01 06:25:56;;;;;;;108.70;43.72;;;;;;;0.73;60.65;101129.56;5056939;28;20322;-62
2024/02/01 06:28:25;;;;;;;97.90;35.63;;;;;;;0.74;61.04;101132.09;5058239;28;20036;-63
2024/02/01 06:30:50;;;;;;;70.63;31.58;;;;;;;0.87;60.97;101128.06;5054949;28;20036;-61
2024/02/01 06:33:15;;;;;;;64.15;30.95;;;;;;;0.98;60.39;101131.97;5056251;28;20021;-61
2024/02/01 06:35:43;;;;;;;59.45;29.38;;;;;;;0.97;61.24;101125.91;5054610;28;20298;-61
2024/02/01 06:38:17;;;;;;;78.03;29.95;;;;;;;0.90;60.98;101120.09;5056126;28;20029;-62
2024/02/01 06:40:56;;;;;;;48.92;19.23;;;;;;;0.86;61.65;101128.97;5055005;28;20028;-61
2024/02/01 06:43:31;;;;;;;43.45;18.65;;;;;;;0.77;63.42;101128.53;5056688;28;20166;-61
2024/02/01 06:46:08;;;;;;;42.83;17.05;;;;;;;0.78;65.32;101122.41;5054626;28;20040;-61
2024/02/01 06:48:41;;;;;;;26.73;13.55;;;;;;;0.86;64.98;101122.91;5054625;28;20353;-62
2024/02/01 06:51:25;;;;;;;21.23;11.48;;;;;;;0.84;65.27;101119.53;5053709;28;20319;-63
2024/02/01 06:54:05;;;;;;;17.58;11.00;;;;;;;0.83;66.00;101123.88;5054773;28;20029;-60
2024/02/01 06:56:51;;;;;;;20.90;10.88;;;;;;;1.04;65.50;101122.13;5054130;28;20036;-62
2024/02/01 06:59:31;;;;;;;18.42;9.77;;;;;;;1.26;66.00;101115.03;5056544;28;20036;-61
2024/02/01 07:02:11;;;;;;;14.27;7.82;;;;;;;1.31;65.57;101121.81;5055691;28;20299;-61
2024/02/01 07:04:50;;;;;;;14.73;8.43;;;;;;;1.12;67.57;101111.34;5075922;28;20048;-64
2024/02/01 07:07:25;;;;;;;13.18;9.10;;;;;;;1.32;65.79;101118.28;5061136;28;20790;-62
2024/02/01 07:10:14;;;;;;;18.75;9.32;;;;;;;1.53;64.92;101128.59;5056833;28;20265;-62
2024/02/01 07:12:42;;;;;;;23.38;11.30;;;;;;;1.73;64.14;101121.59;5059600;28;20053;-62
2024/02/01 07:18:14;;;;;;;39.15;19.67;;;;;;;1.90;62.26;101119.03;5054928;28;20098;-62
2024/02/01 07:26:01;;;;;;;53.13;27.90;;;;;;;2.20;63.99;101112.34;5056617;28;20055;-61
2024/02/01 07:58:37;;;;;;;41.45;23.33;;;;;;;3.93;56.88;101090.13;5055534;28;20039;-62
2024/02/01 08:01:13;;;;;;;32.83;20.77;;;;;;;3.84;56.36;101081.00;5055426;28;20557;-61
2024/02/01 08:03:56;;;;;;;45.70;23.35;;;;;;;3.76;58.81;101088.44;5054955;28;20128;-62
2024/02/01 08:09:11;;;;;;;38.15;22.75;;;;;;;3.83;57.53;101089.78;5054609;28;20381;-61
2024/02/01 08:11:41;;;;;;;39.42;20.33;;;;;;;3.93;56.85;101082.25;5054541;28;20064;-61
2024/02/01 08:14:10;;;;;;;37.33;21.52;;;;;;;4.17;56.64;101091.38;5055093;28;20036;-62
2024/02/01 08:16:36;;;;;;;39.80;20.80;;;;;;;4.27;56.30;101089.06;5054450;28;20128;-63
2024/02/01 08:19:01;;;;;;;38.13;20.48;;;;;;;4.45;55.56;101098.47;5054869;28;20056;-63
2024/02/01 08:21:31;;;;;;;40.83;21.25;;;;;;;4.39;54.93;101096.22;5073915;28;20056;-61
2024/02/01 08:23:57;;;;;;;53.38;25.65;;;;;;;4.63;54.52;101086.03;5072894;28;20082;-62
2024/02/01 08:26:23;;;;;;;59.05;28.10;;;;;;;4.81;54.19;101090.19;5053771;28;20044;-62
2024/02/01 08:28:48;;;;;;;55.55;28.05;;;;;;;5.01;53.57;101084.56;5055853;28;20040;-61
2024/02/01 08:31:17;;;;;;;56.50;28.80;;;;;;;5.10;53.41;101073.50;5053866;28;20384;-61
2024/02/01 08:33:44;;;;;;;51.85;28.98;;;;;;;5.27;52.68;101076.91;5056044;28;20033;-61
2024/02/01 08:36:13;;;;;;;57.45;26.63;;;;;;;5.35;51.35;101074.63;5053016;28;20211;-63
2024/02/01 08:38:39;;;;;;;55.70;26.27;;;;;;;5.42;50.96;101070.69;5060872;28;20387;-62
2024/02/01 08:41:05;;;;;;;44.75;22.35;;;;;;;5.41;51.06;101069.00;5060278;28;20037;-61
2024/02/01 08:43:30;;;;;;;61.97;28.75;;;;;;;5.57;50.04;101066.25;5055122;28;20315;-62
2024/02/01 08:45:56;;;;;;;46.30;24.15;;;;;;;5.65;49.84;101062.19;5054492;28;20074;-62
2024/02/01 08:48:24;;;;;;;31.15;18.50;;;;;;;5.65;47.32;101062.19;5055146;28;20044;-61
2024/02/01 08:50:52;;;;;;;26.88;16.33;;;;;;;5.48;46.39;101058.94;5053555;28;20029;-64
2024/02/01 08:53:19;;;;;;;23.33;12.80;;;;;;;5.57;44.20;101066.25;5054686;28;20033;-61
2024/02/01 08:55:45;;;;;;;25.67;13.18;;;;;;;5.70;43.23;101057.47;5057025;28;20243;-62
2024/02/01 08:58:12;;;;;;;24.13;13.30;;;;;;;5.87;43.62;101058.16;5057716;28;20051;-62
2024/02/01 09:00:42;;;;;;;28.75;14.57;;;;;;;5.71;43.73;101059.16;5059684;28;20370;-61
2024/02/01 09:05:42;;;;;;;23.27;13.38;;;;;;;5.68;44.61;101040.97;5058565;28;20037;-62
2024/02/01 09:08:13;;;;;;;23.40;13.27;;;;;;;5.92;44.80;101038.56;5057668;28;20075;-62
2024/02/01 09:11:00;;;;;;;26.85;14.57;;;;;;;5.92;45.71;101041.19;5058954;28;20100;-63
2024/02/01 09:13:30;;;;;;;22.02;12.95;;;;;;;6.05;44.49;101031.53;5056972;28;20037;-63
2024/02/01 09:15:59;;;;;;;28.73;14.93;;;;;;;6.00;45.09;101027.53;5058816;28;20040;-62
2024/02/01 09:18:24;;;;;;;33.83;16.30;;;;;;;5.86;45.95;101022.31;5058945;28;20123;-61
2024/02/01 09:20:49;;;;;;;24.80;14.57;;;;;;;6.04;44.40;101015.88;5059163;28;20036;-61
2024/02/01 09:23:15;;;;;;;30.60;13.07;;;;;;;6.08;44.56;101012.94;5058052;28;20106;-62
2024/02/01 09:25:41;;;;;;;25.23;13.32;;;;;;;5.94;44.94;101009.53;5059175;28;20044;-62
2024/02/01 09:28:12;;;;;;;24.98;12.30;;;;;;;6.01;44.82;101003.75;5055949;28;20079;-63
2024/02/01 09:30:45;;;;;;;21.40;11.48;;;;;;;5.96;44.43;100997.97;5070870;28;20558;-62
2024/02/01 09:33:15;;;;;;;22.98;11.10;;;;;;;6.09;44.68;100993.56;5056955;28;20033;-62
2024/02/01 09:35:40;;;;;;;17.70;10.13;;;;;;;5.99;46.46;100995.13;5058325;28;20047;-62
2024/02/01 09:38:06;;;;;;;18.60;10.45;;;;;;;5.77;45.71;100981.69;5058214;28;20041;-61
2024/02/01 09:40:32;;;;;;;16.70;10.30;;;;;;;5.68;45.02;100990.19;5059071;28;20302;-62
2024/02/01 09:42:57;;;;;;;11.68;8.13;;;;;;;5.71;44.52;100977.69;5058435;28;20037;-64
2024/02/01 09:45:29;;;;;;;14.02;8.07;;;;;;;5.67;45.63;100970.13;5058323;28;20044;-62
2024/02/01 09:47:56;;;;;;;16.02;8.50;;;;;;;5.55;43.93;100970.91;5058671;28;20041;-61
2024/02/01 09:50:22;;;;;;;13.20;7.85;;;;;;;5.55;43.67;100974.38;5057808;28;20356;-62
2024/02/01 09:52:49;;;;;;;15.90;9.15;;;;;;;5.49;43.57;100964.28;5057942;28;20044;-61
2024/02/01 09:55:16;;;;;;;16.27;9.38;;;;;;;5.61;44.04;100960.84;5058072;28;20385;-62
2024/02/01 09:57:44;;;;;;;14.68;8.35;;;;;;;5.63;43.93;100956.34;5057554;28;20257;-63
2024/02/01 10:00:14;;;;;;;15.55;8.60;;;;;;;5.67;43.60;100938.56;5057355;28;20033;-62
2024/02/01 10:02:44;;;;;;;12.00;7.30;;;;;;;5.75;43.19;100945.00;5056859;28;20049;-62
2024/02/01 10:05:11;;;;;;;15.88;7.03;;;;;;;5.69;42.51;100936.69;5056605;28;20366;-62
2024/02/01 10:07:37;;;;;;;12.80;7.57;;;;;;;5.72;42.59;100926.81;5058104;28;20032;-61
2024/02/01 10:10:05;;;;;;;13.40;8.75;;;;;;;5.33;43.84;100922.41;5058206;28;20207;-61
2024/02/01 10:12:32;;;;;;;17.00;10.10;;;;;;;5.23;44.31;100913.44;5057589;28;20033;-62
2024/02/01 10:14:58;;;;;;;20.90;10.45;;;;;;;5.31;43.52;100911.16;5057660;28;20028;-62
2024/02/01 10:17:24;;;;;;;17.58;9.85;;;;;;;5.45;43.62;100905.84;5057650;28;20151;-64
2024/02/01 10:19:52;;;;;;;19.63;10.82;;;;;;;5.63;43.24;100901.16;5058697;28;20029;-64
2024/02/01 10:22:19;;;;;;;19.30;10.57;;;;;;;5.88;43.76;100889.81;5057728;28;20063;-62
2024/02/01 10:24:48;;;;;;;16.85;9.27;;;;;;;6.06;44.14;100885.97;5057807;28;20056;-62
2024/02/01 10:27:21;;;;;;;17.15;10.00;;;;;;;5.99;43.53;100883.88;5057144;28;20039;-63
2024/02/01 10:29:47;;;;;;;17.10;10.10;;;;;;;5.85;44.16;100873.44;5058508;28;20020;-64
2024/02/01 10:32:14;;;;;;;20.33;10.25;;;;;;;5.80;44.55;100871.09;5057259;28;20028;-61
2024/02/01 10:34:44;;;;;;;20.10;10.27;;;;;;;5.93;43.96;100871.16;5057670;28;20035;-62
2024/02/01 10:37:13;;;;;;;15.52;10.45;;;;;;;5.99;43.87;100863.69;5057284;28;20044;-61
2024/02/01 10:39:43;;;;;;;13.80;9.90;;;;;;;6.23;44.34;100855.88;5056935;28;20101;-62
2024/02/01 10:42:13;;;;;;;19.38;10.30;;;;;;;6.21;44.41;100855.16;5056837;28;20049;-62
2024/02/01 10:44:41;;;;;;;15.75;9.32;;;;;;;6.30;44.09;100849.28;5056871;28;20106;-62
2024/02/01 10:47:13;;;;;;;17.15;9.65;;;;;;;6.39;43.89;100843.34;5067523;28;20045;-62
2024/02/01 10:49:43;;;;;;;17.95;9.38;;;;;;;6.58;43.63;100836.78;5057269;28;20037;-64
2024/02/01 10:52:11;;;;;;;13.05;8.05;;;;;;;6.52;44.86;100834.59;5055862;28;20037;-63
2024/02/01 10:54:37;;;;;;;13.35;8.50;;;;;;;6.59;43.18;100833.22;5057317;28;20219;-61
2024/02/01 10:57:06;;;;;;;16.42;8.88;;;;;;;6.56;44.20;100826.38;5056584;28;20041;-62
2024/02/01 10:59:33;;;;;;;14.90;8.35;;;;;;;6.55;43.07;100815.97;5057797;28;20029;-61
2024/02/01 11:01:59;;;;;;;13.05;8.70;;;;;;;6.61;42.53;100805.84;5057781;28;20342;-61
2024/02/01 11:04:34;;;;;;;18.42;8.75;;;;;;;6.62;42.09;100802.25;5057262;28;20052;-64
2024/02/01 11:07:00;;;;;;;15.55;8.68;;;;;;;6.79;41.11;100801.03;5057423;28;20441;-63
2024/02/01 11:09:28;;;;;;;11.88;8.27;;;;;;;6.86;40.59;100789.09;5057294;28;20048;-62
2024/02/01 11:11:55;;;;;;;15.07;8.27;;;;;;;6.86;40.12;100777.72;5056890;28;20346;-61
2024/02/01 11:14:28;;;;;;;11.82;6.57;;;;;;;6.94;38.39;100778.84;5057853;28;20413;-62
2024/02/01 11:16:59;;;;;;;12.27;7.10;;;;;;;7.05;37.43;100773.59;5057199;28;20342;-61
2024/02/01 11:19:29;;;;;;;10.13;7.32;;;;;;;7.10;37.16;100767.16;5058245;28;20629;-61
2024/02/01 11:21:56;;;;;;;12.07;7.43;;;;;;;7.26;37.52;100771.16;5057186;28;20025;-63
2024/02/01 11:24:30;;;;;;;14.38;7.65;;;;;;;7.33;37.42;100768.94;5055677;28;20028;-63
2024/02/01 11:27:10;;;;;;;13.38;7.78;;;;;;;7.15;37.71;100760.59;5061833;28;20032;-62
2024/02/01 11:29:37;;;;;;;12.43;7.82;;;;;;;7.29;37.20;100754.31;5063313;28;20037;-61
2024/02/01 11:32:05;;;;;;;13.30;8.57;;;;;;;7.37;37.60;100759.84;5057205;28;20041;-62
2024/02/01 11:34:32;;;;;;;11.98;6.85;;;;;;;7.41;38.26;100757.81;5057426;28;20056;-63
2024/02/01 11:36:59;;;;;;;12.27;7.50;;;;;;;7.49;37.72;100747.50;5057400;28;20040;-62
2024/02/01 11:39:26;;;;;;;12.73;8.13;;;;;;;7.45;37.63;100740.81;5056926;28;20467;-62
2024/02/01 11:41:53;;;;;;;14.48;8.43;;;;;;;7.41;37.82;100742.00;5056204;28;20025;-64
2024/02/01 11:44:20;;;;;;;11.55;8.27;;;;;;;7.41;38.34;100734.94;5056964;28;20025;-63
2024/02/01 11:46:47;;;;;;;12.73;8.10;;;;;;;7.40;38.22;100730.63;5055949;28;20063;-62
2024/02/01 11:49:18;;;;;;;14.45;8.85;;;;;;;7.21;38.14;100730.31;5056554;28;20065;-62
2024/02/01 11:51:44;;;;;;;13.98;8.50;;;;;;;7.38;38.10;100729.91;5054651;28;20362;-61
2024/02/01 11:54:10;;;;;;;15.70;9.43;;;;;;;7.43;38.04;100714.56;5056325;28;20036;-62
2024/02/01 11:56:36;;;;;;;12.18;8.10;;;;;;;7.49;37.93;100708.00;5056488;28;20454;-63
2024/02/01 11:59:04;;;;;;;11.27;7.50;;;;;;;7.53;37.78;100697.09;5056576;28;20266;-61
2024/02/01 12:01:30;;;;;;;13.05;8.40;;;;;;;7.36;37.74;100700.19;5055337;28;20047;-62
2024/02/01 12:03:57;;;;;;;15.77;8.48;;;;;;;7.22;37.57;100703.00;5056398;28;20049;-61
2024/02/01 12:06:24;;;;;;;16.10;8.65;;;;;;;7.41;37.39;100694.56;5055958;28;20064;-62